Terminal Aerodrome Forecast
Issued by NWS Portland, OR

Home | Current Version | Previous Version | Text Only | Print | Product List | Glossary On
Versions: 1 2 3 4 5 6 7 8 9 10 11 12 13 14 15 16 17 18
000
FTUS46 KPQR 230253 AAA
TAFEUG
TAF AMD
KEUG 230253Z 2303/2324 16005KT P6SM -RA SCT025 OVC050
     FM231000 19008KT 6SM -RA BKN025 OVC050
     FM231300 19011KT 4SM -RADZ BR SCT015 OVC035
     FM231500 19010KT 2SM -RADZ BR SCT007 OVC015
     FM232000 20008KT 4SM -RA BR BKN007 OVC015=

USA.gov is the U.S. government's official web portal to all federal, state and local government web resources and services.